Time;durP1;ratioP1;P1;durP2;ratioP2;P2;SDS_P1;SDS_P2;PMS_P1;PMS_P2;Temp;Humidity;BMP_temperature;BMP_pressure;BME280_temperature;BME280_humidity;BME280_pressure;Samples;Min_cycle;Max_cycle;Signal;HPM_P1;HPM_P2
2022/11/19 00:01:10;;;;;;;41.30;28.08;;;;;;;-2.21;96.82;99110.94;5053486;28;20025;-83
2022/11/19 00:03:38;;;;;;;36.60;24.52;;;;;;;-2.17;96.50;99111.78;5053650;28;20044;-83
2022/11/19 00:06:05;;;;;;;35.83;21.95;;;;;;;-2.11;96.27;99119.41;5053634;28;20376;-83
2022/11/19 00:08:30;;;;;;;45.75;26.02;;;;;;;-2.09;95.40;99120.25;5053472;28;20475;-83
2022/11/19 00:11:02;;;;;;;47.38;25.42;;;;;;;-2.10;95.58;99110.91;5053685;28;20056;-83
2022/11/19 00:13:28;;;;;;;29.35;20.65;;;;;;;-2.04;95.05;99121.94;5053401;28;20361;-83
2022/11/19 00:15:53;;;;;;;29.38;19.55;;;;;;;-2.03;94.56;99117.66;5035530;28;20063;-83
2022/11/19 00:18:18;;;;;;;27.98;19.13;;;;;;;-2.05;94.62;99121.94;5053173;28;20095;-83
2022/11/19 00:20:43;;;;;;;27.48;19.50;;;;;;;-2.10;94.20;99105.81;5053741;28;20021;-83
2022/11/19 00:23:09;;;;;;;41.92;27.73;;;;;;;-1.98;94.42;99127.84;5035298;28;20449;-83
2022/11/19 00:25:34;;;;;;;32.88;20.38;;;;;;;-2.07;94.20;99106.63;5053139;28;20020;-83
2022/11/19 00:27:59;;;;;;;25.80;18.00;;;;;;;-2.00;94.35;99117.66;5053226;28;20025;-83
2022/11/19 00:30:25;;;;;;;31.00;19.17;;;;;;;-2.01;94.26;99126.19;5034868;28;20021;-83
2022/11/19 00:32:50;;;;;;;26.48;18.60;;;;;;;-1.99;94.54;99137.22;5052961;28;20124;-83
2022/11/19 00:35:16;;;;;;;32.60;21.13;;;;;;;-1.99;94.61;99129.56;5035111;28;20139;-83
2022/11/19 00:37:41;;;;;;;28.80;19.88;;;;;;;-2.06;94.91;99118.56;5053144;28;20082;-83
2022/11/19 00:40:10;;;;;;;34.10;21.40;;;;;;;-2.02;94.20;99125.34;5035120;28;20380;-83
2022/11/19 00:42:35;;;;;;;27.85;19.52;;;;;;;-1.98;94.33;99141.50;5052962;28;20460;-83
2022/11/19 00:45:01;;;;;;;37.13;23.20;;;;;;;-1.96;94.64;99136.38;5035014;28;20040;-83
2022/11/19 00:47:26;;;;;;;34.60;22.08;;;;;;;-1.95;94.93;99144.00;5052635;28;20029;-83
2022/11/19 00:49:51;;;;;;;30.77;21.80;;;;;;;-1.89;94.82;99145.72;5053159;28;20025;-83
2022/11/19 00:52:17;;;;;;;29.92;20.88;;;;;;;-1.90;95.36;99147.38;5052910;28;20024;-83
2022/11/19 00:54:42;;;;;;;29.00;18.73;;;;;;;-1.89;95.53;99151.66;5034822;28;20013;-83
2022/11/19 00:57:08;;;;;;;30.13;18.98;;;;;;;-1.89;95.17;99158.47;5052758;28;20021;-83
2022/11/19 00:59:33;;;;;;;26.95;19.33;;;;;;;-1.89;94.47;99148.25;5052720;28;20096;-83
2022/11/19 01:01:58;;;;;;;48.67;30.33;;;;;;;-1.93;94.35;99147.41;5052510;28;20107;-83
2022/11/19 01:04:24;;;;;;;29.33;20.08;;;;;;;-1.91;94.66;99147.41;5034353;28;20025;-83
2022/11/19 01:06:49;;;;;;;24.55;18.10;;;;;;;-1.88;94.75;99145.69;5052602;28;20060;-83
2022/11/19 01:09:15;;;;;;;27.85;19.63;;;;;;;-1.92;95.24;99140.59;5052233;28;20020;-83
2022/11/19 01:11:40;;;;;;;31.15;21.42;;;;;;;-1.83;95.12;99155.88;5052551;28;20473;-83
2022/11/19 01:14:06;;;;;;;33.60;20.98;;;;;;;-1.84;94.81;99160.13;5034596;28;20024;-83
2022/11/19 01:16:34;;;;;;;35.95;21.98;;;;;;;-1.85;93.96;99162.69;5051938;28;20029;-83
2022/11/19 01:18:59;;;;;;;29.75;20.10;;;;;;;-1.87;95.19;99162.69;5052485;28;20031;-83
2022/11/19 01:21:28;;;;;;;30.17;20.15;;;;;;;-1.98;94.71;99141.50;5052079;28;20025;-83
2022/11/19 01:23:54;;;;;;;28.25;18.85;;;;;;;-1.95;94.05;99150.81;5052095;28;20017;-83
2022/11/19 01:26:20;;;;;;;28.50;18.88;;;;;;;-1.90;94.47;99160.16;5034026;28;20112;-83
2022/11/19 01:28:46;;;;;;;29.50;19.88;;;;;;;-1.94;95.14;99150.81;5052762;28;20459;-83
2022/11/19 01:31:26;;;;;;;28.95;17.95;;;;;;;-1.99;95.39;99138.94;5052271;28;20076;-83
2022/11/19 01:33:51;;;;;;;27.50;19.52;;;;;;;-1.82;94.88;99162.66;5058892;28;20380;-83
2022/11/19 01:36:20;;;;;;;29.88;19.80;;;;;;;-1.82;95.09;99163.50;5071790;28;20078;-83
2022/11/19 01:38:49;;;;;;;30.40;21.00;;;;;;;-1.80;94.77;99168.63;5071506;28;20198;-83
2022/11/19 01:41:19;;;;;;;29.08;18.85;;;;;;;-1.96;94.44;99141.47;5070328;28;20115;-83
2022/11/19 01:43:52;;;;;;;33.30;21.08;;;;;;;-1.86;94.91;99166.09;5070785;28;20043;-83
2022/11/19 01:46:20;;;;;;;29.27;19.17;;;;;;;-1.87;94.46;99172.06;5070585;28;20368;-83
2022/11/19 01:49:00;;;;;;;29.20;19.10;;;;;;;-1.93;94.27;99159.34;5070720;28;20070;-83
2022/11/19 01:51:26;;;;;;;;;;;;;;;-1.91;94.15;99163.56;5072142;28;20052;-83
2022/11/19 01:53:54;;;;;;;32.15;18.70;;;;;;;-1.96;93.07;99157.63;5070474;28;19959;-83
2022/11/19 01:56:21;;;;;;;27.02;18.40;;;;;;;-1.96;93.05;99167.00;5070407;28;20040;-82
2022/11/19 01:58:51;;;;;;;32.05;20.00;;;;;;;-2.01;92.58;99165.31;5070591;28;20020;-83
2022/11/19 02:01:18;;;;;;;47.17;27.63;;;;;;;-2.01;92.55;99172.97;5070235;28;20044;-83
2022/11/19 02:03:44;;;;;;;35.60;21.50;;;;;;;-2.01;92.35;99178.06;5072098;28;20067;-83
2022/11/19 02:06:11;;;;;;;29.08;18.55;;;;;;;-1.97;93.06;99186.56;5071453;28;20032;-83
2022/11/19 02:08:45;;;;;;;28.08;18.10;;;;;;;-1.96;93.49;99180.59;5071556;28;20086;-83
2022/11/19 02:11:26;;;;;;;24.85;16.70;;;;;;;-1.93;93.34;99175.50;5070349;28;20048;-83
2022/11/19 02:14:06;;;;;;;29.70;18.45;;;;;;;-1.89;94.29;99191.66;5071997;28;20021;-83
2022/11/19 02:16:45;;;;;;;27.40;18.73;;;;;;;-1.93;93.95;99178.03;5071429;28;20021;-83
2022/11/19 02:19:41;;;;;;;28.90;18.00;;;;;;;-1.92;94.13;99178.88;5070484;28;20013;-82
2022/11/19 02:22:34;;;;;;;26.70;17.85;;;;;;;-1.84;94.04;99193.31;5009703;28;20037;-83
2022/11/19 02:25:02;;;;;;;27.45;17.42;;;;;;;-1.82;94.24;99206.91;4993047;28;20389;-83
2022/11/19 02:27:33;;;;;;;27.52;18.25;;;;;;;-1.80;93.51;99205.22;4992747;28;20033;-83
2022/11/19 02:30:12;;;;;;;29.17;19.33;;;;;;;-1.78;93.71;99212.84;5009309;28;20101;-83
2022/11/19 02:33:03;;;;;;;32.33;21.50;;;;;;;-1.82;93.28;99206.06;5008962;28;20050;-83
2022/11/19 02:35:48;;;;;;;34.25;21.42;;;;;;;-1.78;93.42;99206.03;5009007;28;20018;-83
2022/11/19 02:38:19;;;;;;;35.58;22.17;;;;;;;-1.75;94.12;99205.19;5009369;28;20069;-83
2022/11/19 02:41:32;;;;;;;30.92;20.38;;;;;;;-1.77;93.71;99196.66;5009392;28;20033;-83
2022/11/19 02:44:57;;;;;;;32.08;20.75;;;;;;;-1.79;93.57;99193.28;5009307;28;20033;-83
2022/11/19 02:46:38;;;;;;;33.63;20.48;;;;;;;-1.73;93.70;99208.56;5009107;28;20096;-83
2022/11/19 02:49:05;;;;;;;30.48;19.50;;;;;;;-1.73;93.57;99207.72;5011273;28;20049;-83
2022/11/19 02:51:31;;;;;;;34.58;20.27;;;;;;;-1.67;93.95;99215.38;5012965;28;20109;-83
2022/11/19 02:53:56;;;;;;;36.78;21.23;;;;;;;-1.72;93.52;99197.53;4996407;28;20165;-83
2022/11/19 02:56:43;;;;;;;35.67;21.27;;;;;;;-1.66;94.16;99209.41;5012472;28;20500;-83
2022/11/19 03:04:37;;;;;;;42.13;25.92;;;;;;;-1.83;92.76;99191.59;5074785;28;20372;-82
2022/11/19 03:07:11;;;;;;;39.90;22.70;;;;;;;-1.80;93.26;99200.09;5073549;28;20013;-83
2022/11/19 03:09:41;;;;;;;35.28;21.55;;;;;;;-1.80;93.15;99206.91;5074441;28;20486;-83
2022/11/19 03:12:09;;;;;;;32.47;20.75;;;;;;;-1.86;92.95;99204.38;5073402;28;20021;-83
2022/11/19 03:17:52;;;;;;;36.35;22.35;;;;;;;-1.96;93.53;99200.16;5074656;28;20564;-84
2022/11/19 03:20:39;;;;;;;33.03;21.17;;;;;;;-1.88;94.09;99217.16;5074602;28;20021;-83
2022/11/19 03:23:27;;;;;;;37.05;22.27;;;;;;;-1.90;93.82;99207.78;5073186;28;20095;-83
2022/11/19 03:26:03;;;;;;;36.85;23.38;;;;;;;-1.99;94.37;99198.47;5073345;28;20032;-84
2022/11/19 03:28:34;;;;;;;41.15;23.23;;;;;;;-1.98;94.87;99205.28;5072844;28;20016;-83
2022/11/19 03:31:01;;;;;;;36.35;22.33;;;;;;;-1.97;94.92;99216.34;5074364;28;20031;-83
2022/11/19 03:33:36;;;;;;;37.00;23.90;;;;;;;-2.05;94.71;99219.75;5072712;28;20044;-84
2022/11/19 03:36:09;;;;;;;40.72;23.30;;;;;;;-2.19;95.48;99210.44;5074022;28;20021;-83
2022/11/19 03:38:41;;;;;;;36.58;23.42;;;;;;;-2.38;95.48;99207.91;5074053;28;20029;-83
2022/11/19 03:41:08;;;;;;;35.30;22.13;;;;;;;-2.44;96.48;99213.03;5074130;28;20028;-83
2022/11/19 03:43:38;;;;;;;36.33;23.48;;;;;;;-2.51;96.51;99224.09;5074068;28;20044;-83
2022/11/19 03:46:08;;;;;;;40.95;23.63;;;;;;;-2.60;97.26;99232.59;5074086;28;20025;-84
2022/11/19 03:48:35;;;;;;;40.60;25.13;;;;;;;-2.67;97.44;99235.16;5072444;28;20048;-83
2022/11/19 03:51:12;;;;;;;39.90;24.88;;;;;;;-2.71;97.81;99241.09;5072777;28;20319;-83
2022/11/19 03:53:37;;;;;;;43.05;24.55;;;;;;;-2.80;97.75;99239.38;5074167;28;20024;-83
2022/11/19 03:56:07;;;;;;;40.60;25.77;;;;;;;-2.83;98.54;99245.31;5072558;28;20043;-83
2022/11/19 03:58:43;;;;;;;41.83;25.63;;;;;;;-2.92;99.04;99242.78;5073628;28;20395;-83
2022/11/19 04:01:09;;;;;;;39.33;24.85;;;;;;;-2.94;98.81;99246.19;5071815;28;20426;-83
2022/11/19 04:03:35;;;;;;;41.70;25.83;;;;;;;-3.08;99.62;99231.69;5072183;28;20115;-83
2022/11/19 04:06:01;;;;;;;42.60;25.73;;;;;;;-3.12;99.71;99236.78;5050953;28;20570;-83
2022/11/19 04:08:26;;;;;;;42.97;26.45;;;;;;;-3.08;100.00;99248.69;5050928;28;20121;-83
2022/11/19 04:10:52;;;;;;;43.85;27.10;;;;;;;-3.18;100.00;99231.69;5051146;28;20083;-83
2022/11/19 04:13:17;;;;;;;45.40;27.05;;;;;;;-3.20;100.00;99236.81;5051140;28;20075;-83
2022/11/19 04:15:42;;;;;;;44.45;25.30;;;;;;;-3.27;100.00;99238.47;5050654;28;20256;-83
2022/11/19 04:18:08;;;;;;;42.00;26.48;;;;;;;-3.29;100.00;99240.19;5034289;28;20021;-83
2022/11/19 04:20:33;;;;;;;45.67;26.33;;;;;;;-3.32;100.00;99242.72;5050788;28;20090;-83
2022/11/19 04:22:59;;;;;;;40.92;26.48;;;;;;;-3.36;100.00;99243.56;5034191;28;20378;-83
2022/11/19 04:25:24;;;;;;;41.97;25.45;;;;;;;-3.40;100.00;99257.13;5050911;28;20159;-83
2022/11/19 04:27:49;;;;;;;40.60;24.65;;;;;;;-3.42;100.00;99263.03;5050874;28;20112;-83
2022/11/19 04:30:15;;;;;;;45.92;27.17;;;;;;;-3.58;100.00;99244.31;5050697;28;20032;-83
2022/11/19 04:32:41;;;;;;;41.30;25.85;;;;;;;-3.49;100.00;99264.72;5050274;28;20047;-83
2022/11/19 04:35:07;;;;;;;41.75;26.00;;;;;;;-3.59;100.00;99258.72;5033931;28;20025;-83
2022/11/19 04:37:32;;;;;;;42.33;25.33;;;;;;;-3.53;100.00;99278.28;5060275;28;20115;-83
2022/11/19 04:39:58;;;;;;;39.10;25.25;;;;;;;-3.59;100.00;99271.47;5071741;28;20151;-83
2022/11/19 04:42:23;;;;;;;44.97;27.05;;;;;;;-3.57;100.00;99281.66;5072925;28;20460;-83
2022/11/19 04:44:48;;;;;;;41.65;26.77;;;;;;;-3.58;100.00;99274.84;5072566;28;20048;-83
2022/11/19 04:47:14;;;;;;;39.38;23.65;;;;;;;-3.60;100.00;99279.94;5071654;28;20021;-83
2022/11/19 04:49:39;;;;;;;39.65;25.98;;;;;;;-3.63;100.00;99279.06;5071336;28;20026;-83
2022/11/19 04:52:04;;;;;;;39.80;24.67;;;;;;;-3.66;100.00;99281.63;5072931;28;20024;-83
2022/11/19 04:54:30;;;;;;;44.20;27.73;;;;;;;-3.69;100.00;99273.97;5071090;28;20036;-83
2022/11/19 04:56:55;;;;;;;42.95;26.02;;;;;;;-3.68;100.00;99273.13;5070036;28;20032;-83
2022/11/19 04:59:21;;;;;;;58.53;31.52;;;;;;;-3.80;100.00;99259.50;5053311;28;20056;-83
2022/11/19 05:01:46;;;;;;;57.03;31.02;;;;;;;-3.75;100.00;99259.50;5069951;28;20045;-83
2022/11/19 05:04:11;;;;;;;45.38;29.33;;;;;;;-3.73;100.00;99275.66;5070201;28;20547;-83
2022/11/19 05:06:37;;;;;;;46.13;27.13;;;;;;;-3.84;100.00;99259.47;5069874;28;20060;-83
2022/11/19 05:09:03;;;;;;;47.50;30.88;;;;;;;-3.79;100.00;99284.13;5070127;28;20028;-83
2022/11/19 05:11:28;;;;;;;40.25;26.75;;;;;;;-3.91;100.00;99268.78;5052711;28;20031;-83
2022/11/19 05:13:53;;;;;;;40.38;25.95;;;;;;;-3.92;100.00;99269.63;5052607;28;20500;-83
2022/11/19 05:16:19;;;;;;;41.78;25.88;;;;;;;-3.95;100.00;99269.59;5069641;28;20029;-83
2022/11/19 05:18:44;;;;;;;40.60;25.50;;;;;;;-3.93;100.00;99275.53;5069548;28;20074;-83
2022/11/19 05:21:09;;;;;;;36.22;23.85;;;;;;;-4.02;100.00;99268.72;5052797;28;20020;-82
2022/11/19 05:23:35;;;;;;;41.05;25.88;;;;;;;-4.00;100.00;99281.44;5069449;28;20379;-84
2022/11/19 05:26:00;;;;;;;41.42;25.27;;;;;;;-4.07;100.00;99272.06;5069752;28;20367;-83
2022/11/19 05:28:26;;;;;;;38.00;25.48;;;;;;;-4.02;100.00;99289.06;5071187;28;20147;-83
2022/11/19 05:30:54;;;;;;;42.88;27.17;;;;;;;-4.08;100.00;99281.41;5072313;28;20078;-83
2022/11/19 05:33:19;;;;;;;40.08;24.60;;;;;;;-4.13;100.00;99272.91;5070758;28;20079;-83
2022/11/19 05:35:45;;;;;;;40.83;24.38;;;;;;;-4.09;100.00;99283.91;5070610;28;20048;-83
2022/11/19 05:38:10;;;;;;;41.63;25.23;;;;;;;-4.12;100.00;99278.84;5072029;28;20026;-83
2022/11/19 05:40:35;;;;;;;45.20;25.33;;;;;;;-4.10;100.00;99292.41;5070574;28;20055;-83
2022/11/19 05:43:05;;;;;;;39.33;25.98;;;;;;;-4.13;100.00;99292.38;5071923;28;20027;-83
2022/11/19 05:45:31;;;;;;;43.97;26.20;;;;;;;-4.08;100.00;99313.63;5070433;28;20513;-83
2022/11/19 05:47:57;;;;;;;39.15;24.45;;;;;;;-4.15;100.00;99305.09;5070786;28;20028;-83
2022/11/19 05:50:22;;;;;;;41.25;25.85;;;;;;;-4.17;100.00;99308.44;5071953;28;20032;-83
2022/11/19 05:52:47;;;;;;;43.35;27.17;;;;;;;-4.17;100.00;99310.97;5071571;28;20024;-83
2022/11/19 05:55:13;;;;;;;42.45;27.85;;;;;;;-4.20;100.00;99316.06;5070501;28;20070;-83
2022/11/19 05:57:38;;;;;;;51.47;31.25;;;;;;;-4.23;100.00;99314.34;5070295;28;20025;-83
2022/11/19 06:00:04;;;;;;;52.78;30.42;;;;;;;-4.23;100.00;99318.59;5071994;28;20024;-83
2022/11/19 06:02:30;;;;;;;41.58;26.63;;;;;;;-4.29;100.00;99315.16;5071919;28;20070;-83
2022/11/19 06:04:56;;;;;;;41.33;26.02;;;;;;;-4.28;100.00;99323.63;5070338;28;20493;-82
2022/11/19 06:07:21;;;;;;;42.65;27.52;;;;;;;-4.33;100.00;99325.31;5072008;28;20051;-82
2022/11/19 06:09:46;;;;;;;48.97;30.08;;;;;;;-4.40;100.00;99318.47;5071440;28;20449;-83
2022/11/19 06:12:12;;;;;;;47.90;29.73;;;;;;;-4.42;100.00;99318.44;5070332;28;20020;-83
2022/11/19 06:14:37;;;;;;;49.63;30.30;;;;;;;-4.42;100.00;99338.78;5071569;28;20089;-82
2022/11/19 06:17:03;;;;;;;40.33;25.92;;;;;;;-4.39;100.00;99350.66;5071775;28;20025;-83
2022/11/19 06:19:28;;;;;;;37.58;23.73;;;;;;;-4.47;100.00;99339.56;5071651;28;20036;-82
2022/11/19 06:21:53;;;;;;;35.58;22.17;;;;;;;-4.52;100.00;99342.06;5071612;28;20024;-82
2022/11/19 06:24:20;;;;;;;33.63;22.15;;;;;;;-4.54;100.00;99347.16;5073792;28;20025;-82
2022/11/19 06:26:45;;;;;;;35.13;21.83;;;;;;;-4.55;100.00;99345.44;5075232;28;20047;-82
2022/11/19 06:29:16;;;;;;;36.47;24.02;;;;;;;-4.60;100.00;99333.53;5076054;28;20024;-82
2022/11/19 06:31:41;;;;;;;;;;;;;;;-4.54;100.00;99353.94;5074525;28;20075;-82
2022/11/19 06:34:07;;;;;;;38.65;25.05;;;;;;;-4.52;100.00;99355.63;5073935;28;20312;-82
2022/11/19 06:36:32;;;;;;;42.72;26.60;;;;;;;-4.48;100.00;99353.13;5075295;28;20452;-82
2022/11/19 06:38:57;;;;;;;78.25;41.33;;;;;;;-4.35;100.00;99352.38;5075178;28;20013;-82
2022/11/19 06:41:23;;;;;;;84.28;44.95;;;;;;;-4.37;100.00;99343.91;5073851;28;20024;-82
2022/11/19 06:43:49;;;;;;;92.35;51.65;;;;;;;-4.25;100.00;99345.72;5075418;28;20032;-82
2022/11/19 06:46:14;;;;;;;95.38;55.08;;;;;;;-4.27;100.00;99355.84;5073934;28;20028;-82
2022/11/19 06:48:40;;;;;;;88.32;48.80;;;;;;;-4.23;100.00;99362.66;5074844;28;20016;-82
2022/11/19 06:51:06;;;;;;;94.35;49.83;;;;;;;-4.22;100.00;99348.25;5073888;28;20021;-82
2022/11/19 06:53:32;;;;;;;87.40;47.17;;;;;;;-4.12;100.00;99365.31;5074985;28;20022;-82
2022/11/19 06:56:03;;;;;;;90.45;50.92;;;;;;;-4.06;100.00;99343.28;5074517;28;20028;-82
2022/11/19 06:58:29;;;;;;;94.25;52.55;;;;;;;-3.74;100.00;99357.09;5075313;28;20020;-82
2022/11/19 07:00:55;;;;;;;97.78;53.85;;;;;;;-3.47;100.00;99361.47;5074807;28;20033;-82
2022/11/19 07:03:21;;;;;;;105.95;56.92;;;;;;;-3.29;100.00;99347.16;5074718;28;20025;-83
2022/11/19 07:05:47;;;;;;;99.55;55.45;;;;;;;-3.04;100.00;99354.84;5073275;28;20036;-83
2022/11/19 07:08:13;;;;;;;95.78;53.17;;;;;;;-2.95;100.00;99338.75;5075068;28;20541;-82
2022/11/19 07:10:39;;;;;;;91.07;49.05;;;;;;;-2.78;100.00;99352.41;5073099;28;20024;-82
2022/11/19 07:13:04;;;;;;;115.40;59.58;;;;;;;-2.67;100.00;99350.69;5073470;28;20114;-83
2022/11/19 07:15:29;;;;;;;101.70;55.33;;;;;;;-2.58;100.00;99354.97;5073383;28;20028;-83
2022/11/19 07:17:55;;;;;;;82.85;45.85;;;;;;;-2.50;99.83;99345.63;5074425;28;20024;-83
2022/11/19 07:20:21;;;;;;;157.00;83.22;;;;;;;-2.37;99.32;99334.59;5074447;28;20028;-83
2022/11/19 07:22:46;;;;;;;153.25;81.35;;;;;;;-2.05;98.72;99336.28;5074380;28;20051;-83
2022/11/19 07:25:12;;;;;;;155.23;86.47;;;;;;;-1.91;97.76;99349.88;5074396;28;20036;-83
2022/11/19 07:27:38;;;;;;;143.00;80.85;;;;;;;-1.82;96.97;99352.41;5074327;28;20021;-83
2022/11/19 07:30:06;;;;;;;144.73;82.90;;;;;;;-1.74;96.68;99338.78;5074364;28;20024;-83
2022/11/19 07:32:31;;;;;;;147.43;82.57;;;;;;;-1.64;95.49;99340.50;5069824;28;20048;-83
2022/11/19 07:34:57;;;;;;;91.03;53.10;;;;;;;-1.45;95.33;99356.59;5053195;28;20029;-82
2022/11/19 07:37:22;;;;;;;70.97;43.15;;;;;;;-1.29;95.05;99356.56;5036243;28;20116;-83
2022/11/19 07:39:47;;;;;;;64.72;39.65;;;;;;;-1.12;94.74;99348.81;5053774;28;20320;-82
2022/11/19 07:44:57;;;;;;;40.55;26.45;;;;;;;-0.70;93.09;99369.91;5053929;28;20545;-83
2022/11/19 07:47:22;;;;;;;40.65;25.02;;;;;;;-0.56;92.71;99365.56;5054340;28;20111;-83
2022/11/19 07:49:47;;;;;;;37.20;25.02;;;;;;;-0.44;92.65;99368.91;5035927;28;20016;-83
2022/11/19 07:52:13;;;;;;;37.08;23.48;;;;;;;-0.32;91.54;99361.16;5035977;28;20441;-83
2022/11/19 07:54:38;;;;;;;38.95;24.60;;;;;;;-0.24;91.42;99364.50;5035737;28;20044;-83
2022/11/19 07:57:03;;;;;;;35.03;24.98;;;;;;;-0.21;90.60;99353.38;5053980;28;20175;-83
2022/11/19 07:59:29;;;;;;;42.33;29.05;;;;;;;-0.14;90.33;99363.56;5053846;28;20020;-83
2022/11/19 08:01:54;;;;;;;40.05;26.05;;;;;;;-0.13;90.61;99354.16;5053435;28;20031;-83
2022/11/19 08:04:20;;;;;;;37.95;25.40;;;;;;;-0.02;90.00;99357.50;5053563;28;20025;-83
2022/11/19 08:06:45;;;;;;;36.83;25.42;;;;;;;0.11;89.82;99363.34;5035228;28;20029;-83
2022/11/19 08:09:10;;;;;;;33.72;22.60;;;;;;;0.07;89.24;99343.75;5053745;28;20428;-83
2022/11/19 08:11:36;;;;;;;38.88;25.23;;;;;;;0.17;89.05;99360.72;5053573;28;20111;-83
2022/11/19 08:14:01;;;;;;;34.88;24.20;;;;;;;0.18;88.88;99355.59;5053397;28;20017;-83
2022/11/19 08:19:13;;;;;;;33.63;23.30;;;;;;;-0.01;86.98;99357.47;5053594;28;20489;-83
2022/11/19 08:21:41;;;;;;;31.88;22.77;;;;;;;-0.04;87.85;99351.56;5048122;28;20483;-84
2022/11/19 08:24:08;;;;;;;34.42;22.90;;;;;;;-0.07;87.50;99354.13;5050891;28;20465;-91
2022/11/19 08:26:34;;;;;;;36.70;25.80;;;;;;;-0.23;87.25;99355.09;5016452;28;20531;-84
2022/11/19 08:28:59;;;;;;;38.00;26.80;;;;;;;-0.33;87.20;99359.44;5013863;28;20029;-83
2022/11/19 08:31:25;;;;;;;40.08;27.08;;;;;;;-0.43;87.35;99350.97;5031136;28;20041;-83
2022/11/19 08:33:51;;;;;;;44.30;27.77;;;;;;;-0.33;88.02;99362.84;5044187;28;20099;-82
2022/11/19 08:36:16;;;;;;;40.92;26.92;;;;;;;-0.40;87.78;99363.75;5033739;28;20029;-82
2022/11/19 08:38:42;;;;;;;40.92;26.40;;;;;;;-0.49;88.16;99351.03;5033635;28;20119;-82
2022/11/19 08:43:51;;;;;;;45.83;28.02;;;;;;;-0.46;88.38;99357.81;5050685;28;20055;-82
2022/11/19 08:46:16;;;;;;;46.65;31.17;;;;;;;-0.45;88.42;99355.25;5050109;28;20025;-83
2022/11/19 08:48:42;;;;;;;49.88;31.63;;;;;;;-0.48;88.95;99354.44;5033432;28;20032;-84
2022/11/19 08:51:09;;;;;;;48.83;29.77;;;;;;;-0.45;88.87;99370.63;5050370;28;20029;-84
2022/11/19 08:53:34;;;;;;;81.05;44.78;;;;;;;-0.42;88.96;99372.28;5052471;28;20102;-84
2022/11/19 08:56:00;;;;;;;83.30;51.25;;;;;;;-0.41;88.87;99384.25;5052445;28;20435;-83
2022/11/19 08:58:25;;;;;;;57.55;33.45;;;;;;;-0.43;88.92;99386.78;5052617;28;20055;-83
2022/11/19 09:00:50;;;;;;;46.80;28.63;;;;;;;-0.44;88.76;99381.69;5052369;28;20479;-83
2022/11/19 09:03:16;;;;;;;51.33;28.95;;;;;;;-0.47;88.41;99382.56;5034771;28;20021;-83
2022/11/19 09:05:41;;;;;;;55.80;34.13;;;;;;;-0.47;88.81;99386.81;5052872;28;20029;-83
2022/11/19 09:08:07;;;;;;;48.25;29.35;;;;;;;-0.48;89.77;99391.09;5034371;28;20025;-83
2022/11/19 09:10:33;;;;;;;59.88;33.53;;;;;;;-0.47;89.23;99395.34;5051199;28;20465;-83
2022/11/19 09:13:00;;;;;;;39.42;25.35;;;;;;;-0.49;88.76;99401.34;5052249;28;20078;-82
2022/11/19 09:15:26;;;;;;;37.22;23.30;;;;;;;-0.47;89.15;99405.56;5052196;28;20025;-83
2022/11/19 09:17:51;;;;;;;34.92;23.42;;;;;;;-0.47;89.99;99400.47;5036827;28;20106;-83
2022/11/19 09:20:16;;;;;;;36.80;22.13;;;;;;;-0.46;89.78;99396.19;5034921;28;20070;-81
2022/11/19 09:22:42;;;;;;;33.22;22.08;;;;;;;-0.46;89.74;99401.31;5067934;28;20021;-83
2022/11/19 09:25:07;;;;;;;35.28;24.00;;;;;;;-0.49;89.14;99397.06;5071869;28;20367;-83
2022/11/19 09:27:33;;;;;;;38.08;23.77;;;;;;;-0.49;89.40;99401.34;5071901;28;20408;-83
2022/11/19 09:29:58;;;;;;;33.63;21.55;;;;;;;-0.49;89.56;99402.19;5053418;28;20020;-83
2022/11/19 09:32:24;;;;;;;34.08;22.30;;;;;;;-0.41;89.60;99415.78;5051738;28;20032;-83
2022/11/19 09:34:49;;;;;;;33.75;23.52;;;;;;;-0.37;89.66;99412.34;5033764;28;20107;-83
2022/11/19 09:37:15;;;;;;;35.78;23.48;;;;;;;-0.44;89.80;99409.84;5052149;28;20029;-83
2022/11/19 09:39:40;;;;;;;37.88;24.63;;;;;;;-0.47;90.08;99387.66;5034186;28;20021;-83
2022/11/19 09:42:26;;;;;;;37.58;23.63;;;;;;;-0.30;89.81;99403.75;5051764;28;20029;-83
2022/11/19 09:45:16;;;;;;;34.03;22.30;;;;;;;-0.38;89.74;99403.00;5045496;28;20036;-82
2022/11/19 09:47:44;;;;;;;36.25;23.90;;;;;;;-0.32;90.03;99391.84;5032240;28;20021;-82
2022/11/19 09:50:18;;;;;;;44.22;25.17;;;;;;;-0.31;90.13;99389.28;5031722;28;20021;-82
2022/11/19 09:52:50;;;;;;;36.03;23.73;;;;;;;-0.28;89.53;99385.84;5031891;28;20028;-82
2022/11/19 09:55:28;;;;;;;39.08;23.60;;;;;;;-0.24;89.63;99387.53;5013984;28;20033;-82
2022/11/19 09:57:58;;;;;;;29.27;21.02;;;;;;;-0.26;89.68;99387.53;5013542;28;20104;-82
2022/11/19 10:00:29;;;;;;;33.80;22.02;;;;;;;-0.18;88.63;99390.03;5014151;28;20461;-82
2022/11/19 10:02:57;;;;;;;30.67;19.75;;;;;;;-0.16;88.06;99378.09;5031634;28;20025;-82
2022/11/19 10:06:08;;;;;;;30.75;20.23;;;;;;;-0.08;87.62;99380.59;5013998;28;20080;-82
2022/11/19 10:08:36;;;;;;;40.63;24.65;;;;;;;-0.04;86.61;99384.84;5031929;28;20107;-82
2022/11/19 10:11:20;;;;;;;36.10;23.05;;;;;;;-0.03;87.47;99379.69;5031704;28;20058;-84
2022/11/19 10:13:52;;;;;;;31.08;19.63;;;;;;;0.01;86.26;99382.22;5014150;28;20021;-78
2022/11/19 10:17:00;;;;;;;24.63;16.85;;;;;;;0.05;86.02;99387.31;5032062;28;20033;-77
2022/11/19 10:19:56;;;;;;;24.60;16.55;;;;;;;0.04;85.00;99388.16;4951287;29;20035;-77
2022/11/19 10:22:34;;;;;;;26.67;17.17;;;;;;;0.10;84.56;99375.31;4951346;29;20023;-77
2022/11/19 10:25:12;;;;;;;25.00;17.23;;;;;;;-0.01;83.44;99357.47;4951306;29;20102;-78
2022/11/19 10:27:54;;;;;;;26.08;17.70;;;;;;;-0.01;83.62;99365.16;4951333;29;20070;-77
2022/11/19 10:30:25;;;;;;;20.20;15.07;;;;;;;0.04;83.47;99367.66;4951096;29;20491;-78
2022/11/19 10:33:22;;;;;;;43.42;21.45;;;;;;;0.07;82.55;99370.22;4950815;28;20043;-77
2022/11/19 10:35:59;;;;;;;54.50;24.30;;;;;;;0.08;82.10;99371.91;4951185;29;20027;-77
2022/11/19 10:38:35;;;;;;;33.00;17.65;;;;;;;0.07;81.99;99364.25;4951143;29;20110;-78
2022/11/19 10:41:08;;;;;;;25.65;16.77;;;;;;;0.07;82.27;99361.69;4951132;29;20049;-77
2022/11/19 10:43:44;;;;;;;38.72;21.30;;;;;;;0.02;81.43;99361.72;4951045;29;20036;-77
2022/11/19 10:46:13;;;;;;;28.17;17.40;;;;;;;0.06;81.42;99360.84;4950954;29;20085;-78
2022/11/19 10:48:48;;;;;;;25.90;16.75;;;;;;;-0.01;81.89;99360.03;4951045;29;20063;-77
2022/11/19 10:51:28;;;;;;;28.48;17.92;;;;;;;0.06;81.54;99375.34;4951103;29;20070;-77
2022/11/19 10:53:54;;;;;;;24.42;17.20;;;;;;;0.10;82.02;99362.50;4950848;29;20038;-77
2022/11/19 10:56:35;;;;;;;31.70;19.00;;;;;;;0.19;82.04;99346.19;4998340;28;20084;-77
2022/11/19 10:59:11;;;;;;;27.23;17.35;;;;;;;0.44;81.44;99359.63;5031161;28;20029;-77
2022/11/19 11:01:41;;;;;;;32.15;18.13;;;;;;;0.45;79.24;99345.94;5031326;28;20041;-77
2022/11/19 11:04:27;;;;;;;22.65;14.10;;;;;;;0.40;77.26;99348.56;5013503;28;20480;-77
2022/11/19 11:06:57;;;;;;;26.27;16.90;;;;;;;0.31;77.30;99348.66;5031138;28;20054;-77
2022/11/19 11:09:35;;;;;;;28.98;18.25;;;;;;;0.26;77.23;99362.38;5031370;28;20021;-77
2022/11/19 11:15:00;;;;;;;23.48;16.65;;;;;;;0.22;77.59;99339.34;5034669;28;20036;-77
2022/11/19 11:17:30;;;;;;;25.23;17.38;;;;;;;0.24;77.92;99349.56;5035010;28;20028;-77
2022/11/19 11:20:03;;;;;;;27.27;17.23;;;;;;;0.15;77.77;99330.00;5034716;28;20036;-77
2022/11/19 11:22:29;;;;;;;32.38;20.10;;;;;;;0.19;77.64;99328.28;5034644;28;20033;-77
2022/11/19 11:24:55;;;;;;;24.17;16.55;;;;;;;0.17;76.50;99318.06;5034667;28;20046;-77
2022/11/19 11:27:21;;;;;;;22.25;15.70;;;;;;;0.31;77.13;99333.28;5034532;28;20025;-77
2022/11/19 11:29:46;;;;;;;19.85;12.70;;;;;;;0.28;76.28;99312.81;5034629;28;20028;-77
2022/11/19 11:32:29;;;;;;;20.45;14.23;;;;;;;0.28;75.50;99320.50;5034131;28;20108;-77
2022/11/19 11:34:55;;;;;;;31.92;18.35;;;;;;;0.20;75.10;99312.03;5034112;28;20525;-77
2022/11/19 11:37:22;;;;;;;24.15;15.10;;;;;;;0.09;74.49;99304.47;5034049;28;20044;-77
2022/11/19 11:39:51;;;;;;;35.72;21.45;;;;;;;0.11;75.77;99299.34;5034373;28;20053;-77
2022/11/19 11:42:18;;;;;;;28.15;18.58;;;;;;;0.28;77.11;99306.84;5034018;28;20026;-77
2022/11/19 11:44:59;;;;;;;33.13;20.00;;;;;;;0.39;76.85;99320.41;5034277;28;20032;-77